Joshua David Esper — WDD8059 — position and weather

sailwx.info

Track history (hours):
 
Tides and Currents Weather Stations Pressure Air Temp Water Temp Dewpoint Dewpoint Depression Visibility Wind Speed Wind Dir Waves Ship Positions

Joshua David Esper

Owner: Marquette Transportation Company LLC, Paducah, KY. More information available from US FCC via Universal Licensing System and Coast Guard Vessel Documentation Center.

Last reported at 2018-May-26 22:27 UTC. Time now 2018-May-27 03:30 UTC.
Position N 33°07' W 091°09'.

Length 42 m; draft 2.7 m.

Type: Tow > 200 m length. MMSI: 367194680.

Date/timePositionNaut miles runAvg speedWind from/ knotsBaromVisibWave heightAir tempDewpointWater temp
2018-May-26 22:27N 33°07' W 091°09'26 2.8
2018-May-26 13:05N 32°40' W 091°07'0 0.0
2018-May-26 12:48N 32°40' W 091°07'0 0.0
2018-May-26 11:44N 32°40' W 091°07'0 0.1
2018-May-26 11:25N 32°40' W 091°07'2 3.7
2018-May-26 10:49N 32°39' W 091°09'2 5.7
2018-May-26 10:31N 32°37' W 091°09'2 4.9
2018-May-26 10:00N 32°35' W 091°08'2 4.6
2018-May-26 09:30N 32°33' W 091°06'2 4.5
2018-May-26 09:00N 32°31' W 091°06'2 4.9
2018-May-26 08:31N 32°29' W 091°07'2 4.9
2018-May-26 08:01N 32°27' W 091°05'2 4.8
2018-May-26 07:30N 32°26' W 091°02'2 4.6
2018-May-26 07:00N 32°25' W 090°60'2 4.5
2018-May-26 06:30N 32°23' W 091°00'4 3.8
2018-May-26 05:30N 32°21' W 090°56'2 4.2
2018-May-26 05:00N 32°19' W 090°54'2 3.9
2018-May-26 04:30N 32°18' W 090°56'0 0.1
2018-May-26 04:00N 32°18' W 090°56'1 1.3
2018-May-26 03:31N 32°18' W 090°56'2 4.7
2018-May-26 03:00N 32°16' W 090°58'2 4.4
2018-May-26 02:30N 32°14' W 090°59'2 4.6
2018-May-26 02:00N 32°12' W 090°59'2 4.3
2018-May-26 01:30N 32°10' W 091°00'2 4.3
2018-May-26 01:00N 32°08' W 091°01'2 4.1
2018-May-26 00:30N 32°08' W 091°04'2 4.9
2018-May-26 00:00N 32°08' W 091°06'2 4.5
2018-May-25 23:30N 32°06' W 091°05'2 4.5
2018-May-25 23:00N 32°04' W 091°04'2 3.1
2018-May-25 22:30N 32°02' W 091°04'0 0.4
2018-May-25 22:00N 32°02' W 091°04'2 4.1
2018-May-25 21:30N 32°00' W 091°05'  
2018-May-20 19:36N 31°57' W 091°11'5 8.5
2018-May-20 18:59N 31°59' W 091°06'5 9.5
2018-May-20 18:30N 32°03' W 091°03'5 9.4
2018-May-20 18:00N 32°07' W 091°07'4 7.5
2018-May-20 17:31N 32°07' W 091°02'4 8.6
2018-May-20 17:00N 32°11' W 090°60'5 9.6
2018-May-20 16:30N 32°16' W 090°58'5 9.5
2018-May-20 16:00N 32°19' W 090°54'3 6.2
2018-May-20 15:30N 32°21' W 090°57'3 6.0
2018-May-20 15:00N 32°23' W 091°00'4 7.6
2018-May-20 14:30N 32°26' W 091°02'5 9.1
2018-May-20 14:00N 32°28' W 091°07'5 7.6
2018-May-20 13:23N 32°33' W 091°06'3 7.7
2018-May-20 13:00N 32°35' W 091°08'4 7.5
2018-May-20 12:26N 32°40' W 091°08'5 4.1
2018-May-20 11:16N 32°44' W 091°09'  
Track history (hours):
 
Tides and Currents Weather Stations Pressure Air Temp Water Temp Dewpoint Dewpoint Depression Visibility Wind Speed Wind Dir Waves Ship Positions

Joshua David Esper

Owner: Marquette Transportation Company LLC, Paducah, KY. More information available from US FCC via Universal Licensing System and Coast Guard Vessel Documentation Center.

Last reported at 2018-May-26 22:27 UTC. Time now 2018-May-27 03:30 UTC.
Position N 33°07' W 091°09'.

Length 42 m; draft 2.7 m.

Type: Tow > 200 m length. MMSI: 367194680.

Date/timePositionNaut miles runAvg speedWind from/ knotsBaromVisibWave heightAir tempDewpointWater temp
2018-May-26 22:27N 33°07' W 091°09'26 2.8
2018-May-26 13:05N 32°40' W 091°07'0 0.0
2018-May-26 12:48N 32°40' W 091°07'0 0.0
2018-May-26 11:44N 32°40' W 091°07'0 0.1
2018-May-26 11:25N 32°40' W 091°07'2 3.7
2018-May-26 10:49N 32°39' W 091°09'2 5.7
2018-May-26 10:31N 32°37' W 091°09'2 4.9
2018-May-26 10:00N 32°35' W 091°08'2 4.6
2018-May-26 09:30N 32°33' W 091°06'2 4.5
2018-May-26 09:00N 32°31' W 091°06'2 4.9
2018-May-26 08:31N 32°29' W 091°07'2 4.9
2018-May-26 08:01N 32°27' W 091°05'2 4.8
2018-May-26 07:30N 32°26' W 091°02'2 4.6
2018-May-26 07:00N 32°25' W 090°60'2 4.5
2018-May-26 06:30N 32°23' W 091°00'4 3.8
2018-May-26 05:30N 32°21' W 090°56'2 4.2
2018-May-26 05:00N 32°19' W 090°54'2 3.9
2018-May-26 04:30N 32°18' W 090°56'0 0.1
2018-May-26 04:00N 32°18' W 090°56'1 1.3
2018-May-26 03:31N 32°18' W 090°56'2 4.7
2018-May-26 03:00N 32°16' W 090°58'2 4.4
2018-May-26 02:30N 32°14' W 090°59'2 4.6
2018-May-26 02:00N 32°12' W 090°59'2 4.3
2018-May-26 01:30N 32°10' W 091°00'2 4.3
2018-May-26 01:00N 32°08' W 091°01'2 4.1
2018-May-26 00:30N 32°08' W 091°04'2 4.9
2018-May-26 00:00N 32°08' W 091°06'2 4.5
2018-May-25 23:30N 32°06' W 091°05'2 4.5
2018-May-25 23:00N 32°04' W 091°04'2 3.1
2018-May-25 22:30N 32°02' W 091°04'0 0.4
2018-May-25 22:00N 32°02' W 091°04'2 4.1
2018-May-25 21:30N 32°00' W 091°05'  
2018-May-20 19:36N 31°57' W 091°11'5 8.5
2018-May-20 18:59N 31°59' W 091°06'5 9.5
2018-May-20 18:30N 32°03' W 091°03'5 9.4
2018-May-20 18:00N 32°07' W 091°07'4 7.5
2018-May-20 17:31N 32°07' W 091°02'4 8.6
2018-May-20 17:00N 32°11' W 090°60'5 9.6
2018-May-20 16:30N 32°16' W 090°58'5 9.5
2018-May-20 16:00N 32°19' W 090°54'3 6.2
2018-May-20 15:30N 32°21' W 090°57'3 6.0
2018-May-20 15:00N 32°23' W 091°00'4 7.6
2018-May-20 14:30N 32°26' W 091°02'5 9.1
2018-May-20 14:00N 32°28' W 091°07'5 7.6
2018-May-20 13:23N 32°33' W 091°06'3 7.7
2018-May-20 13:00N 32°35' W 091°08'4 7.5
2018-May-20 12:26N 32°40' W 091°08'5 4.1
2018-May-20 11:16N 32°44' W 091°09'  

Dump ship's entire track history